createdAt,value
2018-06-23T00:00:54.334Z,101392.45
2018-06-23T00:03:22.389Z,101388.54
2018-06-23T00:05:50.456Z,101394.89
2018-06-23T00:08:18.514Z,101396.16
2018-06-23T00:10:46.599Z,101390.63
2018-06-23T00:13:14.667Z,101398.92
2018-06-23T00:15:42.883Z,101398.00
2018-06-23T00:18:10.969Z,101392.00
2018-06-23T00:20:39.088Z,101394.30
2018-06-23T00:23:07.348Z,101392.14
2018-06-23T00:25:40.837Z,101391.08
2018-06-23T00:28:08.925Z,101384.41
2018-06-23T00:30:37.025Z,101393.84
2018-06-23T00:33:05.139Z,101399.95
2018-06-23T00:35:33.368Z,101397.75
2018-06-23T00:38:01.743Z,101399.59
2018-06-23T00:40:29.812Z,101394.98
2018-06-23T00:42:57.928Z,101389.28
2018-06-23T00:45:26.004Z,101382.48
2018-06-23T00:47:54.284Z,101386.25
2018-06-23T00:50:22.349Z,101381.40
2018-06-23T00:52:50.420Z,101384.52
2018-06-23T00:55:18.489Z,101377.34
2018-06-23T00:57:46.568Z,101374.11
2018-06-23T01:00:14.663Z,101382.52
2018-06-23T01:02:42.944Z,101381.21
2018-06-23T01:05:11.080Z,101382.25
2018-06-23T01:07:39.131Z,101379.59
2018-06-23T01:10:07.732Z,101377.05
2018-06-23T01:12:35.818Z,101380.23
2018-06-23T01:15:03.875Z,101375.84
2018-06-23T01:17:31.949Z,101376.77
2018-06-23T01:20:00.028Z,101376.27
2018-06-23T01:22:28.089Z,101382.27
2018-06-23T01:24:56.168Z,101382.02
2018-06-23T01:27:24.264Z,101377.98
2018-06-23T01:29:52.322Z,101383.16
2018-06-23T01:32:20.397Z,101381.52
2018-06-23T01:34:48.463Z,101383.58
2018-06-23T01:37:16.510Z,101384.50
2018-06-23T01:39:44.658Z,101376.88
2018-06-23T01:42:12.698Z,101371.11
2018-06-23T01:44:40.754Z,101378.27
2018-06-23T01:47:08.796Z,101374.12
2018-06-23T01:49:36.904Z,101370.08
2018-06-23T01:52:05.062Z,101364.30
2018-06-23T01:54:33.152Z,101356.26
2018-06-23T01:57:01.229Z,101351.20
2018-06-23T01:59:29.380Z,101355.59
2018-06-23T02:01:57.435Z,101347.61
2018-06-23T02:04:25.512Z,101349.24
2018-06-23T02:06:53.588Z,101347.05
2018-06-23T02:09:21.636Z,101344.53
2018-06-23T02:11:49.711Z,101342.09
2018-06-23T02:14:23.111Z,101332.66
2018-06-23T02:16:56.680Z,101336.00
2018-06-23T02:19:30.152Z,101333.23
2018-06-23T02:22:03.557Z,101336.56
2018-06-23T02:24:36.885Z,101334.94
2018-06-23T02:27:10.180Z,101333.66
2018-06-23T02:29:43.706Z,101333.30
2018-06-23T02:32:17.280Z,101341.84
2018-06-23T02:34:50.604Z,101331.11
2018-06-23T02:37:18.671Z,101334.44
2018-06-23T02:39:46.711Z,101338.37
2018-06-23T02:42:14.784Z,101344.11
2018-06-23T02:44:42.821Z,101341.34
2018-06-23T02:47:10.894Z,101338.13
2018-06-23T02:49:39.128Z,101339.50
2018-06-23T02:52:07.231Z,101339.26
2018-06-23T02:54:35.409Z,101343.08
2018-06-23T02:57:03.743Z,101343.89
2018-06-23T02:59:31.847Z,101333.06
2018-06-23T03:01:59.934Z,101336.17
2018-06-23T03:04:28.017Z,101340.22
2018-06-23T03:06:56.074Z,101333.30
2018-06-23T03:09:24.132Z,101342.98
2018-06-23T03:11:52.183Z,101336.88
2018-06-23T03:14:20.231Z,101333.30
2018-06-23T03:16:48.284Z,101330.44
2018-06-23T03:19:16.349Z,101333.45
2018-06-23T03:21:44.468Z,101330.58
2018-06-23T03:24:12.556Z,101324.80
2018-06-23T03:26:40.635Z,101319.73
2018-06-23T03:29:08.769Z,101322.75
2018-06-23T03:31:36.929Z,101322.99
2018-06-23T03:34:05.108Z,101323.70
2018-06-23T03:36:33.188Z,101331.74
2018-06-23T03:39:01.256Z,101332.45
2018-06-23T03:41:29.296Z,101336.48
2018-06-23T03:43:57.348Z,101332.02
2018-06-23T03:46:25.415Z,101335.24
2018-06-23T03:48:53.488Z,101334.00
2018-06-23T03:51:21.523Z,101340.77
2018-06-23T03:53:49.593Z,101343.11
2018-06-23T03:56:17.633Z,101347.22
2018-06-23T03:58:45.721Z,101341.20
2018-06-23T04:01:13.764Z,101342.80
2018-06-23T04:03:41.839Z,101347.37
2018-06-23T04:06:09.915Z,101350.13
2018-06-23T04:08:37.972Z,101343.44
2018-06-23T04:11:06.049Z,101347.12
2018-06-23T04:13:34.116Z,101348.75
2018-06-23T04:16:02.182Z,101355.98
2018-06-23T04:18:30.280Z,101359.66
2018-06-23T04:20:58.327Z,101357.78
2018-06-23T04:23:26.376Z,101350.98
2018-06-23T04:25:54.411Z,101352.89
2018-06-23T04:28:22.489Z,101349.30
2018-06-23T04:30:50.563Z,101352.73
2018-06-23T04:33:18.624Z,101346.78
2018-06-23T04:35:46.677Z,101353.02
2018-06-23T04:38:14.734Z,101348.41
2018-06-23T04:40:42.931Z,101344.83
2018-06-23T04:43:11.011Z,101349.32
2018-06-23T04:45:39.126Z,101352.86
2018-06-23T04:48:07.236Z,101345.18
2018-06-23T04:50:35.280Z,101346.31
2018-06-23T04:53:03.351Z,101346.88
2018-06-23T04:55:31.399Z,101338.59
2018-06-23T04:57:59.510Z,101341.25
2018-06-23T05:00:27.581Z,101330.92
2018-06-23T05:02:56.744Z,101332.45
2018-06-23T05:05:25.431Z,101332.45
2018-06-23T05:07:53.527Z,101332.02
2018-06-23T05:10:21.583Z,101326.39
2018-06-23T05:12:49.901Z,101324.91
2018-06-23T05:15:17.971Z,101318.92
2018-06-23T05:17:46.192Z,101327.34
2018-06-23T05:20:14.503Z,101324.70
2018-06-23T05:22:42.546Z,101321.27
2018-06-23T05:25:10.643Z,101319.67
2018-06-23T05:27:38.762Z,101337.41
2018-06-23T05:30:06.929Z,101330.50
2018-06-23T05:32:35.044Z,101334.75
2018-06-23T05:35:03.796Z,101326.61
2018-06-23T05:37:32.264Z,101322.01
2018-06-23T05:40:00.764Z,101332.38
2018-06-23T05:42:28.837Z,101329.77
2018-06-23T05:44:56.900Z,101330.22
2018-06-23T05:47:25.128Z,101337.63
2018-06-23T05:49:53.421Z,101330.61
2018-06-23T05:52:22.000Z,101326.67
2018-06-23T05:54:50.084Z,101320.72
2018-06-23T05:57:18.216Z,101321.18
2018-06-23T05:59:46.303Z,101330.42
2018-06-23T06:02:15.116Z,101335.84
2018-06-23T06:04:43.488Z,101332.05
2018-06-23T06:07:11.827Z,101337.79
2018-06-23T06:09:39.799Z,101332.05
2018-06-23T06:12:07.872Z,101335.48
2018-06-23T06:14:35.927Z,101334.92
2018-06-23T06:17:36.360Z,101340.80
2018-06-23T06:20:06.692Z,101332.30
2018-06-23T06:22:37.041Z,101333.48
2018-06-23T06:25:05.600Z,101331.88
2018-06-23T06:27:33.687Z,101328.44
2018-06-23T06:30:01.983Z,101324.31
2018-06-23T06:32:30.355Z,101324.53
2018-06-23T06:34:59.143Z,101317.98
2018-06-23T06:37:27.197Z,101324.09
2018-06-23T06:39:55.246Z,101323.66
2018-06-23T06:42:23.311Z,101321.69
2018-06-23T06:44:51.354Z,101323.55
2018-06-23T06:47:20.207Z,101329.79
2018-06-23T06:49:48.604Z,101336.59
2018-06-23T06:52:16.783Z,101331.75
2018-06-23T06:54:45.183Z,101338.91
2018-06-23T06:57:13.394Z,101332.00
2018-06-23T06:59:41.532Z,101336.72
2018-06-23T07:02:09.825Z,101342.01
2018-06-23T07:04:38.037Z,101334.28
2018-06-23T07:07:06.163Z,101332.44
2018-06-23T07:09:34.288Z,101336.59
2018-06-23T07:12:02.363Z,101327.16
2018-06-23T07:14:30.416Z,101330.38
2018-06-23T07:16:58.910Z,101343.80
2018-06-23T07:19:26.989Z,101339.42
2018-06-23T07:21:55.059Z,101337.56
2018-06-23T07:24:23.415Z,101350.95
2018-06-23T07:26:51.496Z,101346.02
2018-06-23T07:29:19.520Z,101353.41
2018-06-23T07:31:47.641Z,101341.77
2018-06-23T07:34:15.776Z,101339.00
2018-06-23T07:36:43.841Z,101346.36
2018-06-23T07:39:12.144Z,101331.33
2018-06-23T07:41:40.431Z,101341.34
2018-06-23T07:44:09.219Z,101341.17
2018-06-23T07:46:37.335Z,101334.11
2018-06-23T07:49:05.605Z,101329.95
2018-06-23T07:51:33.801Z,101328.71
2018-06-23T07:54:01.844Z,101322.70
2018-06-23T07:56:29.900Z,101314.25
2018-06-23T07:58:57.949Z,101318.97
2018-06-23T08:01:26.111Z,101316.05
2018-06-23T08:03:54.198Z,101342.41
2018-06-23T08:06:22.248Z,101340.82
2018-06-23T08:08:50.338Z,101342.70
2018-06-23T08:11:18.391Z,101351.18
2018-06-23T08:13:46.448Z,101355.20
2018-06-23T08:16:14.543Z,101354.66
2018-06-23T08:18:43.024Z,101355.49
2018-06-23T08:21:11.121Z,101335.16
2018-06-23T08:23:39.265Z,101324.46
2018-06-23T08:26:07.494Z,101322.27
2018-06-23T08:28:36.228Z,101315.54
2018-06-23T08:31:05.108Z,101323.32
2018-06-23T08:33:33.167Z,101323.06
2018-06-23T08:36:01.331Z,101319.51
2018-06-23T08:38:29.531Z,101319.53
2018-06-23T08:40:57.612Z,101320.52
2018-06-23T08:43:25.696Z,101315.70
2018-06-23T08:45:53.991Z,101316.16
2018-06-23T08:48:22.055Z,101322.84
2018-06-23T08:50:50.111Z,101318.17
2018-06-23T08:53:18.187Z,101308.70
2018-06-23T08:55:46.243Z,101321.67
2018-06-23T08:58:14.318Z,101320.60
2018-06-23T09:00:42.365Z,101315.30
2018-06-23T09:03:10.432Z,101307.81
2018-06-23T09:05:38.489Z,101313.61
2018-06-23T09:08:06.581Z,101306.13
2018-06-23T09:10:34.687Z,101298.55
2018-06-23T09:13:02.835Z,101313.03
2018-06-23T09:15:30.920Z,101309.59
2018-06-23T09:17:59.078Z,101306.41
2018-06-23T09:20:27.301Z,101306.17
2018-06-23T09:22:55.359Z,101301.58
2018-06-23T09:25:23.405Z,101296.59
2018-06-23T09:27:51.462Z,101293.34
2018-06-23T09:30:19.508Z,101298.16
2018-06-23T09:32:47.576Z,101303.34
2018-06-23T09:35:15.649Z,101313.97
2018-06-23T09:37:43.788Z,101313.86
2018-06-23T09:40:11.971Z,101310.07
2018-06-23T09:42:40.111Z,101311.83
2018-06-23T09:45:08.356Z,101307.45
2018-06-23T09:47:36.645Z,101314.75
2018-06-23T09:50:04.721Z,101311.87
2018-06-23T09:52:33.272Z,101319.89
2018-06-23T09:55:01.348Z,101310.80
2018-06-23T09:57:29.383Z,101312.28
2018-06-23T09:59:57.474Z,101322.56
2018-06-23T10:02:25.689Z,101330.41
2018-06-23T10:04:53.771Z,101319.31
2018-06-23T10:07:22.306Z,101327.64
2018-06-23T10:09:58.286Z,101320.12
2018-06-23T10:12:27.980Z,101323.10
2018-06-23T10:14:56.542Z,101331.39
2018-06-23T10:17:26.123Z,101328.91
2018-06-23T10:19:54.471Z,101324.83
2018-06-23T10:22:23.101Z,101328.44
2018-06-23T10:24:51.406Z,101337.64
2018-06-23T10:27:19.823Z,101328.27
2018-06-23T10:29:48.177Z,101325.68
2018-06-23T10:32:17.818Z,101326.22
2018-06-23T10:34:47.261Z,101328.63
2018-06-23T10:37:16.197Z,101326.94
2018-06-23T10:39:46.042Z,101324.41
2018-06-23T10:42:15.828Z,101327.35
2018-06-23T10:44:43.990Z,101323.30
2018-06-23T10:47:12.620Z,101325.17
2018-06-23T10:49:41.528Z,101330.73
2018-06-23T10:52:09.568Z,101330.83
2018-06-23T10:54:40.020Z,101321.64
2018-06-23T10:57:08.555Z,101327.06
2018-06-23T10:59:36.722Z,101327.46
2018-06-23T11:02:04.763Z,101329.59
2018-06-23T11:04:32.913Z,101320.19
2018-06-23T11:07:04.488Z,101327.35
2018-06-23T11:09:35.362Z,101320.30
2018-06-23T11:12:03.604Z,101321.73
2018-06-23T11:14:32.094Z,101319.88
2018-06-23T11:17:00.180Z,101327.17
2018-06-23T11:19:28.313Z,101320.95
2018-06-23T11:21:56.566Z,101325.72
2018-06-23T11:24:24.641Z,101324.78
2018-06-23T11:26:52.780Z,101265.25
2018-06-23T11:29:20.863Z,101337.33
2018-06-23T11:31:49.002Z,101330.01
2018-06-23T11:34:17.096Z,101323.19
2018-06-23T11:36:45.215Z,101321.59
2018-06-23T11:39:13.338Z,101316.99
2018-06-23T11:41:41.471Z,101315.71
2018-06-23T11:44:09.802Z,101318.99
2018-06-23T11:46:37.930Z,101319.87
2018-06-23T11:49:05.980Z,101326.08
2018-06-23T11:51:34.089Z,101323.53
2018-06-23T11:54:02.200Z,101329.47
2018-06-23T11:56:30.483Z,101322.81
2018-06-23T11:58:58.573Z,101320.37
2018-06-23T12:01:26.635Z,101324.91
2018-06-23T12:03:54.992Z,101323.84
2018-06-23T12:06:24.928Z,101314.42
2018-06-23T12:08:53.303Z,101325.17
2018-06-23T12:11:22.544Z,101327.44
2018-06-23T12:13:50.663Z,101323.33
2018-06-23T12:16:22.362Z,101318.33
2018-06-23T12:18:50.677Z,101326.13
2018-06-23T12:21:18.757Z,101310.75
2018-06-23T12:23:47.128Z,101317.44
2018-06-23T12:26:16.661Z,101317.38
2018-06-23T12:28:45.518Z,101308.77
2018-06-23T12:31:15.184Z,101309.58
2018-06-23T12:33:43.306Z,101308.56
2018-06-23T12:36:13.340Z,101302.94
2018-06-23T12:38:42.242Z,101288.41
2018-06-23T12:41:12.434Z,101300.95
2018-06-23T12:43:40.586Z,101291.80
2018-06-23T12:46:08.687Z,101301.16
2018-06-23T12:48:36.883Z,101297.54
2018-06-23T12:51:13.415Z,101296.21
2018-06-23T12:53:44.076Z,101292.84
2018-06-23T12:56:13.546Z,101299.58
2018-06-23T12:58:42.878Z,101289.93
2018-06-23T13:01:13.438Z,101293.44
2018-06-23T13:03:44.202Z,101287.46
2018-06-23T13:06:12.494Z,101281.66
2018-06-23T13:08:47.687Z,101271.41
2018-06-23T13:11:17.706Z,101256.77
2018-06-23T13:13:47.873Z,101279.52
2018-06-23T13:16:17.764Z,101280.95
2018-06-23T13:18:48.340Z,101282.97
2018-06-23T13:21:17.740Z,101281.53
2018-06-23T13:23:48.201Z,101288.52
2018-06-23T13:26:17.922Z,101282.58
2018-06-23T13:28:47.135Z,101283.29
2018-06-23T13:31:16.723Z,101280.02
2018-06-23T13:33:46.649Z,101282.97
2018-06-23T13:36:14.932Z,101272.17
2018-06-23T13:38:48.981Z,101266.45
2018-06-23T13:41:17.961Z,101276.84
2018-06-23T13:43:47.752Z,101264.74
2018-06-23T13:46:20.168Z,101281.14
2018-06-23T13:48:49.388Z,101267.00
2018-06-23T13:51:19.496Z,101263.48
2018-06-23T13:53:47.732Z,101267.56
2018-06-23T13:56:15.857Z,101272.80
2018-06-23T13:58:44.114Z,101258.41
2018-06-23T14:01:13.187Z,101254.55
2018-06-23T14:03:41.416Z,101252.68
2018-06-23T14:06:09.656Z,101256.89
2018-06-23T14:08:38.411Z,101252.73
2018-06-23T14:11:06.737Z,101250.58
2018-06-23T14:13:35.110Z,101239.95
2018-06-23T14:16:03.212Z,101252.52
2018-06-23T14:18:31.336Z,101249.88
2018-06-23T14:20:59.488Z,101257.62
2018-06-23T14:23:27.667Z,101255.80
2018-06-23T14:25:55.779Z,101257.92
2018-06-23T14:28:23.839Z,101266.14
2018-06-23T14:30:51.907Z,101257.08
2018-06-23T14:33:19.996Z,101256.57
2018-06-23T14:35:48.056Z,101250.38
2018-06-23T14:38:16.106Z,101256.38
2018-06-23T14:40:44.235Z,101256.89
2018-06-23T14:43:12.452Z,101258.64
2018-06-23T14:45:40.740Z,101251.34
2018-06-23T14:48:08.989Z,101249.08
2018-06-23T14:50:37.220Z,101244.79
2018-06-23T14:53:05.787Z,101231.98
2018-06-23T14:55:33.978Z,101243.77
2018-06-23T14:58:02.115Z,101253.84
2018-06-23T15:00:30.199Z,101244.06
2018-06-23T15:02:58.248Z,101240.26
2018-06-23T15:05:26.305Z,101225.11
2018-06-23T15:07:54.380Z,101248.92
2018-06-23T15:10:33.982Z,101250.84
2018-06-23T15:13:14.084Z,101237.18
2018-06-23T15:15:42.207Z,101245.31
2018-06-23T15:18:10.325Z,101240.32
2018-06-23T15:20:38.704Z,101238.73
2018-06-23T15:23:07.205Z,101247.68
2018-06-23T15:25:35.708Z,101237.03
2018-06-23T15:28:04.216Z,101243.73
2018-06-23T15:30:32.387Z,101230.50
2018-06-23T15:33:00.593Z,101230.06
2018-06-23T15:35:28.736Z,101224.44
2018-06-23T15:37:56.819Z,101227.20
2018-06-23T15:40:24.959Z,101236.38
2018-06-23T15:42:52.977Z,101230.64
2018-06-23T15:45:21.079Z,101232.45
2018-06-23T15:47:49.174Z,101229.99
2018-06-23T15:50:17.497Z,101225.88
2018-06-23T15:52:45.752Z,101232.34
2018-06-23T15:55:13.977Z,101227.16
2018-06-23T15:57:42.848Z,101226.13
2018-06-23T16:00:11.153Z,101224.91
2018-06-23T16:02:39.459Z,101229.55
2018-06-23T16:05:07.804Z,101225.35
2018-06-23T16:07:36.232Z,101224.81
2018-06-23T16:10:06.403Z,101216.53
2018-06-23T16:12:34.609Z,101220.28
2018-06-23T16:15:02.901Z,101215.66
2018-06-23T16:17:31.057Z,101209.41
2018-06-23T16:19:59.204Z,101200.19
2018-06-23T16:22:27.394Z,101219.30
2018-06-23T16:24:55.475Z,101210.27
2018-06-23T16:27:23.601Z,101193.80
2018-06-23T16:29:51.844Z,101212.97
2018-06-23T16:32:19.904Z,101217.38
2018-06-23T16:34:48.333Z,101222.83
2018-06-23T16:37:16.460Z,101215.41
2018-06-23T16:39:44.557Z,101226.66
2018-06-23T16:42:12.867Z,101220.11
2018-06-23T16:44:41.209Z,101215.95
2018-06-23T16:47:09.408Z,101222.28
2018-06-23T16:49:38.221Z,101220.91
2018-06-23T16:52:06.755Z,101221.76
2018-06-23T16:54:35.612Z,101215.44
2018-06-23T16:57:03.990Z,101207.23
2018-06-23T16:59:32.308Z,101211.14
2018-06-23T17:02:00.420Z,101209.61
2018-06-23T17:04:28.505Z,101207.89
2018-06-23T17:06:56.551Z,101209.80
2018-06-23T17:09:24.955Z,101217.81
2018-06-23T17:11:53.024Z,101210.56
2018-06-23T17:14:21.108Z,101212.93
2018-06-23T17:16:49.218Z,101214.34
2018-06-23T17:19:17.350Z,101210.78
2018-06-23T17:21:45.880Z,101214.44
2018-06-23T17:24:13.951Z,101208.94
2018-06-23T17:26:42.900Z,101208.22
2018-06-23T17:29:10.987Z,101208.86
2018-06-23T17:31:39.044Z,101205.26
2018-06-23T17:34:07.142Z,101205.30
2018-06-23T17:36:36.203Z,101208.72
2018-06-23T17:39:06.304Z,101215.12
2018-06-23T17:41:34.475Z,101208.11
2018-06-23T17:44:02.558Z,101205.25
2018-06-23T17:46:30.691Z,101212.05
2018-06-23T17:48:58.915Z,101207.52
2018-06-23T17:51:27.068Z,101204.09
2018-06-23T17:53:55.191Z,101207.33
2018-06-23T17:56:23.350Z,101209.69
2018-06-23T17:58:51.405Z,101211.21
2018-06-23T18:01:19.728Z,101214.84
2018-06-23T18:03:47.791Z,101211.83
2018-06-23T18:06:15.838Z,101208.14
2018-06-23T18:08:44.130Z,101212.44
2018-06-23T18:11:12.393Z,101204.52
2018-06-23T18:13:40.551Z,101203.16
2018-06-23T18:16:08.705Z,101213.59
2018-06-23T18:18:36.810Z,101202.73
2018-06-23T18:21:04.944Z,101197.73
2018-06-23T18:23:32.986Z,101194.54
2018-06-23T18:26:01.497Z,101198.39
2018-06-23T18:28:29.642Z,101202.05
2018-06-23T18:30:57.695Z,101209.02
2018-06-23T18:33:25.785Z,101205.39
2018-06-23T18:35:53.876Z,101216.94
2018-06-23T18:38:21.942Z,101211.02
2018-06-23T18:40:49.985Z,101204.03
2018-06-23T18:43:18.066Z,101203.84
2018-06-23T18:45:46.148Z,101206.13
2018-06-23T18:48:14.293Z,101204.05
2018-06-23T18:50:42.439Z,101205.63
2018-06-23T18:53:10.676Z,101202.80
2018-06-23T18:55:39.111Z,101199.95
2018-06-23T18:58:07.295Z,101205.18
2018-06-23T19:00:35.566Z,101203.55
2018-06-23T19:03:03.890Z,101203.83
2018-06-23T19:05:32.295Z,101204.69
2018-06-23T19:08:00.443Z,101207.25
2018-06-23T19:10:28.521Z,101202.91
2018-06-23T19:12:56.634Z,101204.62
2018-06-23T19:15:24.731Z,101200.60
2018-06-23T19:17:52.778Z,101200.18
2018-06-23T19:20:20.843Z,101200.69
2018-06-23T19:22:48.892Z,101199.86
2018-06-23T19:25:16.998Z,101199.38
2018-06-23T19:27:45.063Z,101211.59
2018-06-23T19:30:13.483Z,101212.78
2018-06-23T19:32:41.522Z,101211.59
2018-06-23T19:35:09.588Z,101209.63
2018-06-23T19:37:37.760Z,101211.97
2018-06-23T19:40:05.863Z,101218.17
2018-06-23T19:42:33.939Z,101215.47
2018-06-23T19:45:02.090Z,101214.24
2018-06-23T19:47:30.179Z,101217.53
2018-06-23T19:49:58.291Z,101220.54
2018-06-23T19:52:26.619Z,101215.36
2018-06-23T19:54:54.768Z,101217.48
2018-06-23T19:57:22.801Z,101221.15
2018-06-23T19:59:50.867Z,101219.10
2018-06-23T20:02:18.915Z,101221.66
2018-06-23T20:04:46.958Z,101216.83
2018-06-23T20:07:15.122Z,101220.34
2018-06-23T20:09:43.261Z,101219.45
2018-06-23T20:12:11.384Z,101217.13
2018-06-23T20:14:39.860Z,101221.34
2018-06-23T20:17:08.035Z,101221.80
2018-06-23T20:19:36.381Z,101225.75
2018-06-23T20:22:04.804Z,101224.50
2018-06-23T20:24:32.951Z,101229.05
2018-06-23T20:27:01.041Z,101229.05
2018-06-23T20:29:29.103Z,101230.06
2018-06-23T20:31:57.159Z,101234.47
2018-06-23T20:34:25.231Z,101238.17
2018-06-23T20:36:53.283Z,101240.30
2018-06-23T20:39:21.372Z,101235.03
2018-06-23T20:41:49.428Z,101236.80
2018-06-23T20:44:17.483Z,101231.52
2018-06-23T20:46:45.656Z,101234.01
2018-06-23T20:49:13.731Z,101232.02
2018-06-23T20:51:41.951Z,101229.73
2018-06-23T20:54:10.107Z,101237.79
2018-06-23T20:56:38.300Z,101236.38
2018-06-23T20:59:06.640Z,101237.38
2018-06-23T21:01:34.818Z,101231.66
2018-06-23T21:04:02.928Z,101234.55
2018-06-23T21:06:30.983Z,101241.20
2018-06-23T21:08:59.064Z,101241.83
2018-06-23T21:11:27.160Z,101239.00
2018-06-23T21:13:55.361Z,101240.53
2018-06-23T21:16:23.354Z,101244.17
2018-06-23T21:18:51.415Z,101239.14
2018-06-23T21:21:19.493Z,101244.49
2018-06-23T21:23:47.692Z,101252.62
2018-06-23T21:26:15.771Z,101253.48
2018-06-23T21:28:43.973Z,101245.63
2018-06-23T21:31:12.085Z,101246.86
2018-06-23T21:33:40.142Z,101247.09
2018-06-23T21:36:08.519Z,101248.75
2018-06-23T21:38:36.723Z,101247.97
2018-06-23T21:41:04.904Z,101240.06
2018-06-23T21:43:32.988Z,101240.90
2018-06-23T21:46:01.035Z,101238.59
2018-06-23T21:48:29.200Z,101239.44
2018-06-23T21:50:57.274Z,101243.25
2018-06-23T21:53:25.627Z,101243.52
2018-06-23T21:55:53.693Z,101242.12
2018-06-23T21:58:21.758Z,101245.16
2018-06-23T22:00:49.860Z,101240.66
2018-06-23T22:03:17.935Z,101253.05
2018-06-23T22:05:46.051Z,101249.59
2018-06-23T22:08:14.163Z,101244.28
2018-06-23T22:10:42.527Z,101240.27
2018-06-23T22:13:10.704Z,101247.69
2018-06-23T22:15:38.885Z,101250.11
2018-06-23T22:18:07.100Z,101243.30
2018-06-23T22:20:35.333Z,101243.07
2018-06-23T22:23:03.535Z,101248.41
2018-06-23T22:25:31.628Z,101241.60
2018-06-23T22:27:59.777Z,101246.45
2018-06-23T22:30:27.892Z,101242.19
2018-06-23T22:32:55.975Z,101238.48
2018-06-23T22:35:24.116Z,101235.16
2018-06-23T22:37:52.199Z,101232.84
2018-06-23T22:40:20.435Z,101238.51
2018-06-23T22:42:48.493Z,101233.22
2018-06-23T22:45:16.563Z,101234.28
2018-06-23T22:47:44.675Z,101239.33
2018-06-23T22:50:12.756Z,101235.18
2018-06-23T22:52:41.354Z,101240.72
2018-06-23T22:55:10.606Z,101236.11
2018-06-23T22:57:39.021Z,101231.27
2018-06-23T23:00:10.953Z,101224.80
2018-06-23T23:02:39.111Z,101220.20
2018-06-23T23:05:07.467Z,101224.23
2018-06-23T23:07:35.684Z,101222.98
2018-06-23T23:10:04.081Z,101222.98
2018-06-23T23:12:32.132Z,101212.15
2018-06-23T23:15:00.453Z,101216.51
2018-06-23T23:17:28.792Z,101212.03
2018-06-23T23:19:56.885Z,101209.83
2018-06-23T23:22:24.975Z,101212.36
2018-06-23T23:24:53.281Z,101210.77
2018-06-23T23:27:21.356Z,101213.05
2018-06-23T23:29:49.435Z,101209.50
2018-06-23T23:32:17.475Z,101211.79
2018-06-23T23:34:45.535Z,101203.37
2018-06-23T23:37:13.727Z,101201.53
2018-06-23T23:39:41.967Z,101202.34
2018-06-23T23:42:10.164Z,101193.23
2018-06-23T23:44:38.351Z,101192.54
2018-06-23T23:47:07.128Z,101184.92
2018-06-23T23:49:35.404Z,101185.63
2018-06-23T23:52:04.127Z,101181.47
2018-06-23T23:54:32.232Z,101175.70
2018-06-23T23:57:00.407Z,101171.55
2018-06-23T23:59:28.463Z,101171.78
